createdAt,value
2023-01-19T00:00:35.614Z,19.73
2023-01-19T00:03:04.533Z,20.05
2023-01-19T00:05:33.504Z,19.24
2023-01-19T00:08:01.287Z,19.97
2023-01-19T00:10:28.951Z,19.97
2023-01-19T00:12:56.970Z,20.13
2023-01-19T00:15:24.938Z,20.12
2023-01-19T00:17:53.001Z,19.30
2023-01-19T00:20:20.460Z,19.53
2023-01-19T00:22:49.376Z,19.81
2023-01-19T00:25:17.242Z,19.42
2023-01-19T00:27:44.725Z,18.49
2023-01-19T00:30:13.043Z,19.99
2023-01-19T00:32:40.579Z,20.11
2023-01-19T00:35:08.713Z,20.11
2023-01-19T00:37:36.418Z,20.20
2023-01-19T00:40:06.746Z,19.36
2023-01-19T00:42:34.289Z,19.49
2023-01-19T00:45:02.059Z,20.07
2023-01-19T00:47:30.131Z,19.20
2023-01-19T00:49:57.650Z,20.05
2023-01-19T00:52:25.252Z,19.84
2023-01-19T00:54:52.726Z,19.83
2023-01-19T00:57:21.692Z,20.15
2023-01-19T00:59:49.251Z,19.55
2023-01-19T01:02:16.900Z,19.80
2023-01-19T01:04:44.466Z,19.52
2023-01-19T01:07:12.428Z,20.33
2023-01-19T01:09:39.955Z,20.41
2023-01-19T01:12:08.175Z,20.47
2023-01-19T01:14:37.091Z,19.91
2023-01-19T01:17:04.888Z,20.40
2023-01-19T01:19:32.356Z,19.82
2023-01-19T01:21:59.801Z,20.18
2023-01-19T01:24:27.219Z,19.21
2023-01-19T01:26:54.698Z,20.04
2023-01-19T01:29:22.343Z,19.56
2023-01-19T01:31:51.276Z,18.68
2023-01-19T01:34:18.932Z,19.36
2023-01-19T01:36:46.432Z,19.76
2023-01-19T01:39:14.392Z,19.69
2023-01-19T01:41:41.822Z,20.07
2023-01-19T01:44:45.183Z,19.26
2023-01-19T01:47:14.926Z,19.17
2023-01-19T01:49:42.760Z,18.63
2023-01-19T01:52:11.480Z,19.56
2023-01-19T01:54:39.195Z,19.08
2023-01-19T01:57:10.228Z,19.69
2023-01-19T01:59:43.471Z,19.20
2023-01-19T02:02:16.212Z,19.69
2023-01-19T02:04:47.764Z,19.19
2023-01-19T02:07:23.799Z,19.44
2023-01-19T02:09:52.131Z,19.26
2023-01-19T02:12:19.797Z,19.12
2023-01-19T02:14:47.501Z,19.95
2023-01-19T02:17:16.590Z,19.91
2023-01-19T02:19:44.265Z,18.75
2023-01-19T02:22:16.598Z,17.82
2023-01-19T02:24:45.812Z,20.14
2023-01-19T02:27:13.579Z,19.17
2023-01-19T02:29:41.614Z,20.01
2023-01-19T02:32:10.410Z,18.47
2023-01-19T02:34:38.148Z,19.54
2023-01-19T02:37:11.079Z,19.74
2023-01-19T02:39:42.849Z,20.20
2023-01-19T02:42:15.765Z,20.19
2023-01-19T02:44:47.055Z,19.42
2023-01-19T02:47:15.315Z,20.37
2023-01-19T02:49:42.930Z,20.46
2023-01-19T02:52:16.594Z,19.34
2023-01-19T02:54:58.299Z,20.33
2023-01-19T02:57:39.490Z,19.82
2023-01-19T03:00:21.383Z,19.53
2023-01-19T03:03:02.067Z,19.45
2023-01-19T03:05:41.393Z,19.87
2023-01-19T03:08:16.887Z,20.22
2023-01-19T03:10:53.792Z,18.00
2023-01-19T03:13:30.046Z,19.92
2023-01-19T03:16:00.426Z,19.32
2023-01-19T03:18:32.432Z,19.37
2023-01-19T03:21:04.459Z,19.63
2023-01-19T03:23:35.492Z,19.81
2023-01-19T03:26:04.864Z,18.77
2023-01-19T03:28:36.406Z,19.73
2023-01-19T03:31:08.266Z,19.34
2023-01-19T03:33:41.596Z,19.79
2023-01-19T03:36:13.145Z,19.53
2023-01-19T03:38:43.418Z,20.04
2023-01-19T03:41:13.743Z,19.43
2023-01-19T03:43:44.703Z,17.75
2023-01-19T03:46:13.071Z,19.90
2023-01-19T03:48:40.709Z,20.19
2023-01-19T03:51:10.042Z,19.38
2023-01-19T03:53:37.794Z,20.14
2023-01-19T03:56:06.240Z,20.11
2023-01-19T03:58:33.800Z,20.03
2023-01-19T04:01:03.096Z,20.13
2023-01-19T04:03:30.630Z,19.52
2023-01-19T04:05:58.148Z,20.06
2023-01-19T04:08:25.575Z,19.82
2023-01-19T04:10:53.185Z,19.85
2023-01-19T04:13:20.681Z,20.45
2023-01-19T04:15:48.152Z,20.03
2023-01-19T04:18:17.096Z,20.33
2023-01-19T04:20:44.522Z,20.06
2023-01-19T04:23:12.112Z,20.65
2023-01-19T04:25:39.719Z,20.20
2023-01-19T04:28:07.244Z,19.93
2023-01-19T04:30:34.764Z,18.95
2023-01-19T04:33:02.517Z,19.58
2023-01-19T04:35:31.850Z,17.44
2023-01-19T04:37:59.317Z,19.32
2023-01-19T04:40:26.907Z,19.45
2023-01-19T04:42:54.427Z,18.80
2023-01-19T04:45:22.398Z,19.09
2023-01-19T04:47:51.119Z,19.78
2023-01-19T04:50:19.154Z,18.84
2023-01-19T04:52:48.228Z,18.87
2023-01-19T04:55:16.751Z,19.20
2023-01-19T04:57:44.257Z,18.88
2023-01-19T05:00:13.203Z,17.81
2023-01-19T05:02:40.713Z,18.83
2023-01-19T05:05:08.881Z,18.46
2023-01-19T05:07:36.537Z,18.66
2023-01-19T05:10:07.068Z,18.11
2023-01-19T05:12:34.642Z,18.84
2023-01-19T05:15:02.244Z,18.69
2023-01-19T05:17:29.745Z,18.41
2023-01-19T05:19:57.171Z,18.09
2023-01-19T05:22:24.664Z,18.53
2023-01-19T05:24:52.184Z,18.19
2023-01-19T05:27:21.199Z,18.12
2023-01-19T05:29:48.644Z,18.79
2023-01-19T05:32:16.089Z,18.20
2023-01-19T05:34:43.531Z,18.41
2023-01-19T05:37:10.991Z,18.46
2023-01-19T05:39:38.467Z,18.91
2023-01-19T05:42:06.207Z,18.52
2023-01-19T05:44:35.142Z,18.48
2023-01-19T05:47:02.613Z,19.32
2023-01-19T05:49:30.058Z,18.02
2023-01-19T05:51:57.704Z,18.07
2023-01-19T05:54:25.186Z,18.14
2023-01-19T05:56:52.717Z,18.90
2023-01-19T05:59:20.631Z,18.41
2023-01-19T06:01:49.612Z,18.92
2023-01-19T06:04:17.122Z,19.07
2023-01-19T06:06:44.536Z,18.18
2023-01-19T06:09:12.002Z,18.70
2023-01-19T06:11:39.458Z,18.70
2023-01-19T06:14:07.034Z,17.83
2023-01-19T06:16:34.645Z,17.58
2023-01-19T06:19:03.950Z,18.58
2023-01-19T06:21:31.599Z,18.68
2023-01-19T06:23:59.052Z,17.68
2023-01-19T06:26:26.505Z,18.43
2023-01-19T06:28:53.949Z,17.61
2023-01-19T06:31:21.572Z,19.01
2023-01-19T06:33:49.131Z,19.39
2023-01-19T06:36:18.032Z,19.41
2023-01-19T06:38:45.580Z,18.80
2023-01-19T06:41:13.082Z,18.06
2023-01-19T06:43:40.558Z,18.58
2023-01-19T06:46:08.226Z,18.86
2023-01-19T06:48:35.824Z,18.46
2023-01-19T06:51:03.263Z,18.18
2023-01-19T06:53:32.113Z,19.11
2023-01-19T06:56:00.368Z,18.87
2023-01-19T06:58:28.673Z,19.30
2023-01-19T07:00:56.301Z,18.83
2023-01-19T07:03:25.446Z,18.24
2023-01-19T07:05:53.942Z,18.12
2023-01-19T07:08:21.829Z,17.42
2023-01-19T07:11:26.922Z,18.10
2023-01-19T07:13:40.271Z,17.79
2023-01-19T07:16:10.485Z,18.76
2023-01-19T07:18:40.155Z,18.54
2023-01-19T07:21:08.083Z,18.84
2023-01-19T07:23:35.576Z,18.01
2023-01-19T07:26:04.647Z,17.75
2023-01-19T07:28:32.721Z,18.45
2023-01-19T07:31:00.342Z,18.13
2023-01-19T07:33:27.901Z,18.96
2023-01-19T07:35:55.655Z,18.78
2023-01-19T07:38:23.249Z,20.04
2023-01-19T07:40:51.361Z,18.68
2023-01-19T07:43:21.209Z,18.86
2023-01-19T07:45:49.253Z,18.05
2023-01-19T07:48:16.807Z,19.66
2023-01-19T07:50:44.307Z,20.40
2023-01-19T07:53:12.105Z,20.30
2023-01-19T07:55:40.240Z,19.07
2023-01-19T07:58:08.006Z,18.56
2023-01-19T08:00:38.364Z,18.66
2023-01-19T08:03:06.060Z,18.63
2023-01-19T08:05:33.841Z,18.88
2023-01-19T08:08:01.324Z,20.40
2023-01-19T08:10:29.476Z,19.50
2023-01-19T08:12:59.268Z,19.06
2023-01-19T08:15:28.377Z,19.55
2023-01-19T08:17:58.877Z,19.63
2023-01-19T08:20:27.259Z,19.96
2023-01-19T08:22:55.787Z,20.10
2023-01-19T08:25:24.303Z,19.73
2023-01-19T08:27:54.989Z,19.31
2023-01-19T08:30:22.563Z,20.32
2023-01-19T08:32:50.047Z,19.81
2023-01-19T08:35:19.463Z,19.84
2023-01-19T08:37:46.958Z,20.09
2023-01-19T08:40:14.662Z,19.14
2023-01-19T08:42:42.160Z,19.85
2023-01-19T08:45:10.404Z,20.12
2023-01-19T08:47:37.925Z,20.37
2023-01-19T08:50:06.096Z,19.69
2023-01-19T08:52:34.996Z,18.83
2023-01-19T08:55:02.437Z,19.73
2023-01-19T08:57:29.903Z,19.73
2023-01-19T08:59:57.341Z,20.34
2023-01-19T09:02:24.832Z,18.73
2023-01-19T09:04:52.346Z,19.76
2023-01-19T09:07:19.954Z,18.19
2023-01-19T09:09:48.955Z,18.14
2023-01-19T09:12:16.414Z,18.55
2023-01-19T09:14:43.893Z,17.94
2023-01-19T09:17:11.392Z,18.73
2023-01-19T09:19:38.855Z,17.80
2023-01-19T09:22:06.315Z,18.74
2023-01-19T09:24:33.763Z,18.36
2023-01-19T09:27:02.833Z,19.63
2023-01-19T09:29:30.425Z,18.44
2023-01-19T09:31:58.070Z,19.25
2023-01-19T09:34:25.514Z,18.91
2023-01-19T09:36:53.063Z,18.29
2023-01-19T09:39:20.960Z,19.00
2023-01-19T09:41:56.379Z,18.33
2023-01-19T09:44:29.735Z,19.09
2023-01-19T09:46:57.187Z,18.58
2023-01-19T09:49:31.570Z,18.78
2023-01-19T09:51:59.452Z,19.15
2023-01-19T09:54:35.303Z,18.44
2023-01-19T09:57:03.027Z,18.05
2023-01-19T09:59:33.946Z,19.39
2023-01-19T10:02:19.466Z,18.73
2023-01-19T10:04:59.348Z,18.79
2023-01-19T10:07:36.066Z,19.29
2023-01-19T10:10:16.728Z,18.47
2023-01-19T10:13:04.866Z,18.04
2023-01-19T10:15:46.900Z,18.47
2023-01-19T10:18:19.643Z,18.50
2023-01-19T10:20:50.817Z,17.90
2023-01-19T10:23:36.952Z,17.71
2023-01-19T10:26:09.435Z,20.35
2023-01-19T10:28:38.796Z,19.45
2023-01-19T10:31:08.698Z,18.42
2023-01-19T10:33:36.430Z,18.50
2023-01-19T10:36:06.262Z,19.41
2023-01-19T10:38:35.364Z,18.47
2023-01-19T10:41:10.379Z,18.91
2023-01-19T10:43:40.260Z,18.02
2023-01-19T10:46:23.411Z,18.62
2023-01-19T10:48:53.541Z,18.52
2023-01-19T10:51:22.341Z,18.77
2023-01-19T10:53:59.301Z,18.40
2023-01-19T10:56:31.002Z,18.80
2023-01-19T10:59:01.394Z,17.95
2023-01-19T11:01:31.396Z,19.72
2023-01-19T11:03:58.965Z,18.83
2023-01-19T11:06:28.528Z,19.43
2023-01-19T11:09:16.654Z,17.64
2023-01-19T11:11:48.185Z,18.92
2023-01-19T11:14:19.603Z,18.51
2023-01-19T11:16:52.478Z,18.33
2023-01-19T11:19:27.730Z,17.33
2023-01-19T11:22:11.596Z,18.97
2023-01-19T11:24:44.160Z,18.79
2023-01-19T11:27:12.088Z,18.73
2023-01-19T11:29:39.737Z,18.51
2023-01-19T11:32:21.045Z,18.98
2023-01-19T11:34:49.178Z,18.45
2023-01-19T11:37:29.379Z,18.53
2023-01-19T11:39:59.247Z,19.09
2023-01-19T11:42:30.407Z,18.17
2023-01-19T11:45:03.598Z,17.36
2023-01-19T11:47:38.484Z,17.82
2023-01-19T11:50:12.529Z,19.08
2023-01-19T11:52:45.286Z,18.85
2023-01-19T11:55:22.395Z,19.31
2023-01-19T11:57:54.292Z,18.33
2023-01-19T12:00:29.020Z,17.61
2023-01-19T12:03:05.400Z,18.80
2023-01-19T12:05:35.430Z,19.56
2023-01-19T12:08:07.345Z,18.28
2023-01-19T12:10:41.654Z,17.58
2023-01-19T12:13:20.902Z,18.27
2023-01-19T12:15:53.623Z,18.74
2023-01-19T12:18:28.737Z,18.79
2023-01-19T12:20:57.192Z,19.08
2023-01-19T12:23:40.086Z,19.30
2023-01-19T12:26:34.577Z,19.42
2023-01-19T12:29:08.263Z,19.10
2023-01-19T12:31:35.892Z,18.01
2023-01-19T12:34:38.637Z,19.00
2023-01-19T12:37:07.998Z,18.13
2023-01-19T12:39:47.564Z,18.63
2023-01-19T12:42:18.514Z,18.61
2023-01-19T12:44:48.338Z,19.15
2023-01-19T12:47:21.153Z,18.16
2023-01-19T12:49:53.301Z,18.00
2023-01-19T12:52:26.915Z,18.74
2023-01-19T12:55:00.155Z,18.43
2023-01-19T12:57:34.092Z,18.54
2023-01-19T13:00:07.647Z,19.32
2023-01-19T13:02:47.969Z,18.60
2023-01-19T13:05:25.731Z,18.22
2023-01-19T13:08:30.112Z,17.79
2023-01-19T13:11:19.875Z,18.99
2023-01-19T13:14:25.605Z,19.41
2023-01-19T13:17:01.013Z,19.88
2023-01-19T13:19:42.167Z,19.37
2023-01-19T13:23:03.582Z,18.23
2023-01-19T13:25:35.279Z,18.23
2023-01-19T13:28:09.324Z,18.88
2023-01-19T13:30:40.729Z,18.69
2023-01-19T13:33:18.276Z,17.95
2023-01-19T13:35:53.181Z,19.42
2023-01-19T13:38:22.898Z,18.45
2023-01-19T13:40:52.900Z,18.66
2023-01-19T13:43:25.588Z,18.76
2023-01-19T13:45:55.226Z,18.08
2023-01-19T13:48:23.349Z,18.98
2023-01-19T13:50:59.472Z,18.95
2023-01-19T13:53:27.538Z,18.95
2023-01-19T13:56:18.869Z,20.15
2023-01-19T13:58:59.001Z,19.80
2023-01-19T14:01:29.076Z,19.52
2023-01-19T14:03:57.071Z,19.10
2023-01-19T14:06:33.855Z,19.77
2023-01-19T14:09:23.076Z,19.60
2023-01-19T14:12:08.604Z,19.42
2023-01-19T14:14:36.492Z,19.13
2023-01-19T14:17:04.772Z,19.47
2023-01-19T14:19:49.765Z,19.46
2023-01-19T14:22:18.062Z,19.52
2023-01-19T14:24:45.580Z,19.47
2023-01-19T14:27:23.216Z,19.84
2023-01-19T14:29:52.247Z,19.51
2023-01-19T14:32:22.016Z,19.71
2023-01-19T14:34:51.212Z,19.97
2023-01-19T14:37:21.753Z,20.20
2023-01-19T14:39:51.652Z,20.51
2023-01-19T14:42:25.531Z,20.25
2023-01-19T14:44:58.437Z,19.63
2023-01-19T14:47:29.011Z,19.68
2023-01-19T14:50:00.152Z,19.88
2023-01-19T14:52:31.639Z,19.00
2023-01-19T14:55:00.871Z,19.70
2023-01-19T14:57:29.736Z,19.51
2023-01-19T14:59:57.163Z,20.04
2023-01-19T15:02:24.751Z,19.78
2023-01-19T15:04:52.278Z,20.07
2023-01-19T15:07:20.291Z,20.00
2023-01-19T15:09:48.150Z,20.09
2023-01-19T15:12:17.677Z,19.96
2023-01-19T15:14:47.096Z,20.26
2023-01-19T15:17:20.815Z,19.94
2023-01-19T15:19:48.268Z,19.75
2023-01-19T15:22:15.681Z,19.52
2023-01-19T15:24:43.084Z,19.90
2023-01-19T15:27:11.667Z,20.31
2023-01-19T15:29:39.413Z,19.24
2023-01-19T15:32:12.794Z,19.79
2023-01-19T15:34:40.258Z,20.19
2023-01-19T15:37:07.883Z,20.25
2023-01-19T15:39:35.756Z,19.54
2023-01-19T15:42:03.363Z,19.49
2023-01-19T15:44:30.918Z,20.12
2023-01-19T15:46:58.363Z,20.35
2023-01-19T15:49:27.248Z,19.62
2023-01-19T15:51:54.804Z,19.91
2023-01-19T15:54:22.377Z,19.54
2023-01-19T15:56:49.814Z,18.38
2023-01-19T15:59:17.313Z,19.96
2023-01-19T16:01:44.948Z,19.89
2023-01-19T16:04:12.392Z,17.76
2023-01-19T16:06:41.358Z,19.57
2023-01-19T16:09:08.863Z,19.99
2023-01-19T16:11:36.391Z,19.45
2023-01-19T16:14:03.891Z,19.91
2023-01-19T16:16:31.902Z,19.45
2023-01-19T16:18:59.421Z,19.74
2023-01-19T16:21:27.496Z,19.55
2023-01-19T16:23:56.598Z,20.22
2023-01-19T16:26:27.755Z,19.65
2023-01-19T16:28:59.545Z,19.97
2023-01-19T16:31:27.952Z,19.62
2023-01-19T16:33:56.177Z,20.01
2023-01-19T16:36:28.448Z,19.49
2023-01-19T16:38:59.077Z,20.46
2023-01-19T16:41:26.834Z,20.02
2023-01-19T16:43:56.162Z,20.13
2023-01-19T16:46:25.921Z,20.36
2023-01-19T16:48:53.212Z,20.63
2023-01-19T16:51:21.668Z,19.84
2023-01-19T16:53:49.628Z,19.93
2023-01-19T16:56:18.890Z,19.61
2023-01-19T16:58:46.622Z,19.91
2023-01-19T17:01:19.546Z,19.25
2023-01-19T17:03:47.738Z,19.64
2023-01-19T17:06:18.458Z,19.96
2023-01-19T17:08:46.441Z,20.07
2023-01-19T17:11:16.051Z,19.65
2023-01-19T17:13:44.578Z,19.78
2023-01-19T17:16:12.090Z,18.95
2023-01-19T17:18:39.813Z,19.91
2023-01-19T17:21:09.323Z,20.09
2023-01-19T17:23:41.904Z,19.98
2023-01-19T17:26:09.534Z,20.17
2023-01-19T17:28:37.528Z,20.31
2023-01-19T17:31:07.485Z,20.24
2023-01-19T17:33:35.300Z,20.02
2023-01-19T17:36:03.570Z,20.09
2023-01-19T17:38:31.008Z,19.91
2023-01-19T17:40:58.634Z,20.01
2023-01-19T17:43:26.106Z,20.10
2023-01-19T17:45:53.604Z,19.90
2023-01-19T17:48:22.546Z,19.93
2023-01-19T17:50:50.008Z,19.92
2023-01-19T17:53:17.495Z,19.24
2023-01-19T17:55:44.955Z,20.33
2023-01-19T17:58:12.497Z,19.83
2023-01-19T18:00:40.003Z,20.46
2023-01-19T18:03:07.460Z,20.53
2023-01-19T18:05:36.878Z,20.11
2023-01-19T18:08:04.700Z,19.84
2023-01-19T18:10:32.149Z,20.09
2023-01-19T18:12:59.624Z,19.91
2023-01-19T18:15:27.099Z,19.92
2023-01-19T18:17:54.548Z,19.83
2023-01-19T18:20:22.043Z,19.60
2023-01-19T18:22:51.489Z,19.84
2023-01-19T18:25:18.943Z,19.75
2023-01-19T18:27:46.883Z,19.82
2023-01-19T18:30:15.579Z,19.96
2023-01-19T18:32:43.086Z,19.87
2023-01-19T18:35:10.646Z,20.06
2023-01-19T18:37:38.136Z,20.39
2023-01-19T18:40:08.383Z,19.47
2023-01-19T18:42:35.650Z,19.90
2023-01-19T18:45:03.458Z,19.95
2023-01-19T18:47:32.977Z,19.95
2023-01-19T18:50:00.432Z,19.00
2023-01-19T18:52:28.048Z,19.72
2023-01-19T18:54:55.481Z,20.27
2023-01-19T18:57:24.468Z,20.28
2023-01-19T18:59:52.012Z,19.85
2023-01-19T19:02:19.491Z,20.10
2023-01-19T19:04:46.959Z,19.86
2023-01-19T19:07:14.428Z,19.52
2023-01-19T19:09:42.385Z,19.51
2023-01-19T19:12:09.927Z,19.73
2023-01-19T19:14:39.004Z,19.95
2023-01-19T19:17:06.616Z,19.96
2023-01-19T19:19:34.207Z,19.93
2023-01-19T19:22:01.615Z,20.40
2023-01-19T19:24:29.064Z,19.61
2023-01-19T19:26:56.615Z,19.15
2023-01-19T19:29:24.108Z,20.10
2023-01-19T19:31:53.039Z,20.03
2023-01-19T19:34:20.707Z,19.90
2023-01-19T19:36:48.145Z,19.54
2023-01-19T19:39:15.591Z,19.95
2023-01-19T19:41:43.045Z,19.42
2023-01-19T19:44:11.502Z,20.04
2023-01-19T19:46:39.232Z,19.53
2023-01-19T19:49:08.247Z,19.32
2023-01-19T19:51:36.186Z,19.47
2023-01-19T19:54:03.799Z,20.48
2023-01-19T19:56:32.615Z,19.46
2023-01-19T19:59:00.322Z,19.68
2023-01-19T20:01:32.314Z,20.24
2023-01-19T20:04:08.177Z,19.69
2023-01-19T20:06:36.383Z,19.23
2023-01-19T20:09:04.370Z,19.56
2023-01-19T20:11:31.856Z,20.57
2023-01-19T20:13:59.502Z,20.34
2023-01-19T20:16:26.962Z,20.10
2023-01-19T20:18:54.531Z,18.11
2023-01-19T20:25:40.500Z,19.76
2023-01-19T20:29:03.982Z,20.59
2023-01-19T20:31:53.274Z,19.61
2023-01-19T20:34:23.306Z,18.92
2023-01-19T20:36:50.807Z,19.10
2023-01-19T20:39:19.061Z,19.72
2023-01-19T20:41:46.456Z,20.10
2023-01-19T20:44:16.696Z,19.77
2023-01-19T20:53:26.293Z,20.00
2023-01-19T20:55:53.881Z,20.04
2023-01-19T20:58:21.872Z,20.09
2023-01-19T21:00:49.697Z,20.13
2023-01-19T21:03:17.684Z,20.74
2023-01-19T21:05:48.205Z,20.69
2023-01-19T21:08:16.177Z,20.57
2023-01-19T21:10:43.992Z,20.63
2023-01-19T21:13:11.801Z,20.16
2023-01-19T21:15:39.209Z,20.24
2023-01-19T21:18:06.743Z,19.92
2023-01-19T21:20:34.209Z,20.64
2023-01-19T21:23:03.093Z,20.76
2023-01-19T21:25:30.504Z,20.85
2023-01-19T21:27:57.987Z,20.30
2023-01-19T21:30:25.401Z,20.19
2023-01-19T21:32:52.826Z,20.10
2023-01-19T21:35:20.286Z,19.66
2023-01-19T21:37:47.763Z,19.63
2023-01-19T21:40:17.362Z,20.33
2023-01-19T21:42:44.403Z,20.57
2023-01-19T21:45:12.094Z,19.99
2023-01-19T21:47:40.410Z,20.31
2023-01-19T21:50:08.727Z,20.12
2023-01-19T21:52:36.154Z,20.58
2023-01-19T21:55:04.439Z,19.62
2023-01-19T21:57:33.303Z,20.21
2023-01-19T22:00:00.762Z,20.14
2023-01-19T22:02:38.290Z,20.74
2023-01-19T22:05:06.974Z,20.62
2023-01-19T22:07:34.425Z,19.88
2023-01-19T22:10:01.855Z,20.50
2023-01-19T22:12:29.343Z,20.32
2023-01-19T22:14:58.217Z,19.75
2023-01-19T22:17:25.780Z,20.70
2023-01-19T22:19:53.197Z,20.29
2023-01-19T22:22:20.814Z,21.00
2023-01-19T22:24:50.180Z,20.63
2023-01-19T22:27:17.787Z,20.47
2023-01-19T22:29:45.351Z,20.94
2023-01-19T22:32:14.255Z,20.58
2023-01-19T22:34:41.711Z,20.60
2023-01-19T22:37:09.328Z,20.84
2023-01-19T22:39:36.995Z,20.46
2023-01-19T22:42:04.411Z,20.92
2023-01-19T22:44:31.829Z,20.98
2023-01-19T22:46:59.238Z,20.25
2023-01-19T22:49:28.369Z,20.42
2023-01-19T22:51:55.819Z,20.92
2023-01-19T22:54:23.321Z,20.55
2023-01-19T22:56:50.812Z,20.53
2023-01-19T22:59:18.259Z,20.40
2023-01-19T23:01:45.852Z,20.75
2023-01-19T23:04:15.551Z,20.74
2023-01-19T23:06:44.844Z,20.36
2023-01-19T23:09:14.333Z,20.36
2023-01-19T23:11:43.278Z,20.96
2023-01-19T23:14:14.598Z,20.46
2023-01-19T23:16:42.272Z,20.07
2023-01-19T23:19:12.233Z,19.63
2023-01-19T23:21:40.571Z,19.01
2023-01-19T23:24:10.306Z,19.79
2023-01-19T23:26:37.604Z,20.15
2023-01-19T23:29:07.461Z,19.85
2023-01-19T23:31:36.998Z,18.29
2023-01-19T23:34:04.976Z,20.12
2023-01-19T23:36:34.308Z,19.99
2023-01-19T23:39:04.755Z,20.40
2023-01-19T23:41:33.969Z,20.31
2023-01-19T23:44:01.772Z,19.96
2023-01-19T23:46:29.383Z,20.58
2023-01-19T23:48:56.927Z,20.41
2023-01-19T23:51:26.663Z,20.18
2023-01-19T23:53:54.616Z,20.39
2023-01-19T23:56:24.607Z,20.25
2023-01-19T23:58:55.696Z,19.26
